sensor_id;sensor_type;location;lat;lon;timestamp;pressure;altitude;pressure_sealevel;temperature;humidity
7170;BME280;3626;42.656;23.312;2023-05-11T00:00:09;94717.97;;;8.77;100.00
7170;BME280;3626;42.656;23.312;2023-05-11T00:00:15;94718.78;;;8.78;100.00
7170;BME280;3626;42.656;23.312;2023-05-11T00:00:21;94713.78;;;8.76;100.00
7170;BME280;3626;42.656;23.312;2023-05-11T00:00:27;94718.13;;;8.76;100.00
7170;BME280;3626;42.656;23.312;2023-05-11T00:00:33;94714.75;;;8.75;100.00
7170;BME280;3626;42.656;23.312;2023-05-11T00:00:39;94724.25;;;8.75;100.00
7170;BME280;3626;42.656;23.312;2023-05-11T00:00:45;94714.91;;;8.74;100.00
7170;BME280;3626;42.656;23.312;2023-05-11T00:00:51;94712.50;;;8.72;100.00
7170;BME280;3626;42.656;23.312;2023-05-11T00:01:02;94716.81;;;8.72;100.00
7170;BME280;3626;42.656;23.312;2023-05-11T00:01:08;94721.16;;;8.71;100.00
7170;BME280;3626;42.656;23.312;2023-05-11T00:01:14;94718.59;;;8.71;100.00
7170;BME280;3626;42.656;23.312;2023-05-11T00:01:20;94715.88;;;8.73;100.00
7170;BME280;3626;42.656;23.312;2023-05-11T00:01:29;94719.25;;;8.73;100.00
7170;BME280;3626;42.656;23.312;2023-05-11T00:01:35;94718.28;;;8.74;100.00
7170;BME280;3626;42.656;23.312;2023-05-11T00:01:41;94716.53;;;8.75;100.00
7170;BME280;3626;42.656;23.312;2023-05-11T00:01:47;94713.00;;;8.76;100.00
7170;BME280;3626;42.656;23.312;2023-05-11T00:01:53;94720.72;;;8.76;100.00
7170;BME280;3626;42.656;23.312;2023-05-11T00:01:59;94718.13;;;8.76;100.00
7170;BME280;3626;42.656;23.312;2023-05-11T00:02:06;94718.94;;;8.76;100.00
7170;BME280;3626;42.656;23.312;2023-05-11T00:02:12;94720.72;;;8.76;100.00
7170;BME280;3626;42.656;23.312;2023-05-11T00:02:18;94725.84;;;8.76;100.00
7170;BME280;3626;42.656;23.312;2023-05-11T00:02:24;94727.47;;;8.77;100.00
7170;BME280;3626;42.656;23.312;2023-05-11T00:02:30;94732.63;;;8.77;100.00
7170;BME280;3626;42.656;23.312;2023-05-11T00:02:36;94724.88;;;8.77;100.00
7170;BME280;3626;42.656;23.312;2023-05-11T00:02:42;94714.59;;;8.77;100.00
7170;BME280;3626;42.656;23.312;2023-05-11T00:02:50;94717.19;;;8.77;100.00
7170;BME280;3626;42.656;23.312;2023-05-11T00:02:57;94719.91;;;8.75;100.00
7170;BME280;3626;42.656;23.312;2023-05-11T00:03:03;94713.97;;;8.75;100.00
7170;BME280;3626;42.656;23.312;2023-05-11T00:03:09;94718.28;;;8.74;100.00
7170;BME280;3626;42.656;23.312;2023-05-11T00:03:15;94718.28;;;8.74;100.00
7170;BME280;3626;42.656;23.312;2023-05-11T00:03:20;94718.28;;;8.74;100.00
7170;BME280;3626;42.656;23.312;2023-05-11T00:03:26;94720.84;;;8.74;100.00
7170;BME280;3626;42.656;23.312;2023-05-11T00:03:33;94719.25;;;8.73;100.00
7170;BME280;3626;42.656;23.312;2023-05-11T00:03:39;94715.69;;;8.74;100.00
7170;BME280;3626;42.656;23.312;2023-05-11T00:03:45;94714.09;;;8.73;100.00
7170;BME280;3626;42.656;23.312;2023-05-11T00:03:51;94718.44;;;8.73;100.00
7170;BME280;3626;42.656;23.312;2023-05-11T00:03:57;94726.16;;;8.73;100.00
7170;BME280;3626;42.656;23.312;2023-05-11T00:04:03;94722.09;;;8.70;100.00
7170;BME280;3626;42.656;23.312;2023-05-11T00:04:09;94720.38;;;8.71;100.00
7170;BME280;3626;42.656;23.312;2023-05-11T00:04:15;94717.78;;;8.71;100.00
7170;BME280;3626;42.656;23.312;2023-05-11T00:04:21;94721.16;;;8.71;100.00
7170;BME280;3626;42.656;23.312;2023-05-11T00:04:27;94722.94;;;8.71;100.00
7170;BME280;3626;42.656;23.312;2023-05-11T00:04:36;94718.59;;;8.71;100.00
7170;BME280;3626;42.656;23.312;2023-05-11T00:04:42;94719.41;;;8.72;100.00
7170;BME280;3626;42.656;23.312;2023-05-11T00:04:48;94720.38;;;8.71;100.00
7170;BME280;3626;42.656;23.312;2023-05-11T00:04:54;94721.16;;;8.71;100.00
7170;BME280;3626;42.656;23.312;2023-05-11T00:05:00;94721.16;;;8.71;100.00
7170;BME280;3626;42.656;23.312;2023-05-11T00:05:06;94716.97;;;8.70;100.00
7170;BME280;3626;42.656;23.312;2023-05-11T00:05:12;94720.38;;;8.71;100.00
7170;BME280;3626;42.656;23.312;2023-05-11T00:05:18;94723.75;;;8.71;100.00
7170;BME280;3626;42.656;23.312;2023-05-11T00:05:24;94716.97;;;8.70;100.00
7170;BME280;3626;42.656;23.312;2023-05-11T00:05:30;94718.72;;;8.70;100.00
7170;BME280;3626;42.656;23.312;2023-05-11T00:05:36;94717.94;;;8.69;100.00
7170;BME280;3626;42.656;23.312;2023-05-11T00:05:46;94714.56;;;8.69;100.00
7170;BME280;3626;42.656;23.312;2023-05-11T00:05:52;94716.97;;;8.70;100.00
7170;BME280;3626;42.656;23.312;2023-05-11T00:06:01;94722.94;;;8.71;100.00
7170;BME280;3626;42.656;23.312;2023-05-11T00:06:07;94716.97;;;8.70;100.00
7170;BME280;3626;42.656;23.312;2023-05-11T00:06:13;94720.38;;;8.71;100.00
7170;BME280;3626;42.656;23.312;2023-05-11T00:06:19;94713.44;;;8.71;100.00
7170;BME280;3626;42.656;23.312;2023-05-11T00:06:25;94723.59;;;8.73;100.00
7170;BME280;3626;42.656;23.312;2023-05-11T00:06:31;94720.03;;;8.74;100.00
7170;BME280;3626;42.656;23.312;2023-05-11T00:06:37;94723.41;;;8.74;100.00
7170;BME280;3626;42.656;23.312;2023-05-11T00:06:43;94719.09;;;8.75;100.00
7170;BME280;3626;42.656;23.312;2023-05-11T00:06:49;94718.13;;;8.76;100.00
7170;BME280;3626;42.656;23.312;2023-05-11T00:06:55;94721.53;;;8.76;100.00
7170;BME280;3626;42.656;23.312;2023-05-11T00:07:01;94721.53;;;8.76;100.00
7170;BME280;3626;42.656;23.312;2023-05-11T00:07:07;94716.38;;;8.76;100.00
7170;BME280;3626;42.656;23.312;2023-05-11T00:07:13;94724.88;;;8.77;100.00
7170;BME280;3626;42.656;23.312;2023-05-11T00:07:19;94713.63;;;8.78;100.00
7170;BME280;3626;42.656;23.312;2023-05-11T00:07:25;94720.56;;;8.77;100.00
7170;BME280;3626;42.656;23.312;2023-05-11T00:07:31;94722.31;;;8.77;100.00
7170;BME280;3626;42.656;23.312;2023-05-11T00:07:37;94720.56;;;8.77;100.00
7170;BME280;3626;42.656;23.312;2023-05-11T00:07:43;94721.53;;;8.76;100.00
7170;BME280;3626;42.656;23.312;2023-05-11T00:07:48;94716.38;;;8.76;100.00
7170;BME280;3626;42.656;23.312;2023-05-11T00:07:55;94723.28;;;8.76;100.00
7170;BME280;3626;42.656;23.312;2023-05-11T00:08:02;94716.53;;;8.75;100.00
7170;BME280;3626;42.656;23.312;2023-05-11T00:08:08;94726.66;;;8.76;100.00
7170;BME280;3626;42.656;23.312;2023-05-11T00:08:14;94720.72;;;8.76;100.00
7170;BME280;3626;42.656;23.312;2023-05-11T00:08:20;94719.09;;;8.75;100.00
7170;BME280;3626;42.656;23.312;2023-05-11T00:08:26;94723.41;;;8.74;100.00
7170;BME280;3626;42.656;23.312;2023-05-11T00:08:32;94714.91;;;8.74;100.00
7170;BME280;3626;42.656;23.312;2023-05-11T00:08:38;94719.25;;;8.73;100.00
7170;BME280;3626;42.656;23.312;2023-05-11T00:08:44;94723.59;;;8.73;100.00
7170;BME280;3626;42.656;23.312;2023-05-11T00:08:50;94722.63;;;8.74;100.00
7170;BME280;3626;42.656;23.312;2023-05-11T00:08:56;94727.75;;;8.74;100.00
7170;BME280;3626;42.656;23.312;2023-05-11T00:09:02;94726.16;;;8.73;100.00
7170;BME280;3626;42.656;23.312;2023-05-11T00:09:08;94719.25;;;8.73;100.00
7170;BME280;3626;42.656;23.312;2023-05-11T00:09:15;94719.41;;;8.72;100.00
7170;BME280;3626;42.656;23.312;2023-05-11T00:09:21;94720.38;;;8.71;100.00
7170;BME280;3626;42.656;23.312;2023-05-11T00:09:27;94722.94;;;8.71;100.00
7170;BME280;3626;42.656;23.312;2023-05-11T00:09:33;94726.44;;;8.70;100.00
7170;BME280;3626;42.656;23.312;2023-05-11T00:09:40;94714.56;;;8.69;100.00
7170;BME280;3626;42.656;23.312;2023-05-11T00:09:47;94724.03;;;8.68;100.00
7170;BME280;3626;42.656;23.312;2023-05-11T00:09:53;94719.06;;;8.67;100.00
7170;BME280;3626;42.656;23.312;2023-05-11T00:09:59;94724.19;;;8.67;100.00
7170;BME280;3626;42.656;23.312;2023-05-11T00:10:06;94726.63;;;8.68;100.00
7170;BME280;3626;42.656;23.312;2023-05-11T00:10:12;94724.03;;;8.68;100.00
7170;BME280;3626;42.656;23.312;2023-05-11T00:10:19;94718.09;;;8.68;100.00
7170;BME280;3626;42.656;23.312;2023-05-11T00:10:25;94727.25;;;8.70;100.00
7170;BME280;3626;42.656;23.312;2023-05-11T00:10:32;94721.31;;;8.70;100.00
7170;BME280;3626;42.656;23.312;2023-05-11T00:10:38;94723.06;;;8.69;100.00
7170;BME280;3626;42.656;23.312;2023-05-11T00:10:46;94724.69;;;8.70;100.00
7170;BME280;3626;42.656;23.312;2023-05-11T00:10:52;94719.53;;;8.70;100.00
7170;BME280;3626;42.656;23.312;2023-05-11T00:10:58;94722.09;;;8.70;100.00
7170;BME280;3626;42.656;23.312;2023-05-11T00:11:06;94722.09;;;8.70;100.00
7170;BME280;3626;42.656;23.312;2023-05-11T00:11:15;94717.94;;;8.69;100.00
7170;BME280;3626;42.656;23.312;2023-05-11T00:11:23;94719.69;;;8.69;100.00
7170;BME280;3626;42.656;23.312;2023-05-11T00:11:29;94725.81;;;8.68;100.00
7170;BME280;3626;42.656;23.312;2023-05-11T00:11:35;94725.81;;;8.68;100.00
7170;BME280;3626;42.656;23.312;2023-05-11T00:11:42;94724.03;;;8.68;100.00
7170;BME280;3626;42.656;23.312;2023-05-11T00:11:48;94725.66;;;8.69;100.00
7170;BME280;3626;42.656;23.312;2023-05-11T00:11:56;94725.66;;;8.69;100.00
7170;BME280;3626;42.656;23.312;2023-05-11T00:12:05;94729.03;;;8.70;100.00
7170;BME280;3626;42.656;23.312;2023-05-11T00:12:12;94726.44;;;8.70;100.00
7170;BME280;3626;42.656;23.312;2023-05-11T00:12:18;94721.31;;;8.70;100.00
7170;BME280;3626;42.656;23.312;2023-05-11T00:12:24;94718.91;;;8.68;100.00
7170;BME280;3626;42.656;23.312;2023-05-11T00:12:30;94725.66;;;8.69;100.00
7170;BME280;3626;42.656;23.312;2023-05-11T00:12:37;94731.59;;;8.70;100.00
7170;BME280;3626;42.656;23.312;2023-05-11T00:12:43;94728.22;;;8.69;100.00
7170;BME280;3626;42.656;23.312;2023-05-11T00:12:49;94716.31;;;8.68;100.00
7170;BME280;3626;42.656;23.312;2023-05-11T00:12:57;94723.25;;;8.68;100.00
7170;BME280;3626;42.656;23.312;2023-05-11T00:13:03;94725.00;;;8.67;100.00
7170;BME280;3626;42.656;23.312;2023-05-11T00:13:09;94727.72;;;8.66;100.00
7170;BME280;3626;42.656;23.312;2023-05-11T00:13:15;94716.63;;;8.65;100.00
7170;BME280;3626;42.656;23.312;2023-05-11T00:13:21;94714.84;;;8.66;100.00
7170;BME280;3626;42.656;23.312;2023-05-11T00:13:27;94720.16;;;8.64;100.00
7170;BME280;3626;42.656;23.312;2023-05-11T00:13:34;94729.47;;;8.65;100.00
7170;BME280;3626;42.656;23.312;2023-05-11T00:13:39;94727.06;;;8.64;100.00
7170;BME280;3626;42.656;23.312;2023-05-11T00:13:46;94728.69;;;8.65;100.00
7170;BME280;3626;42.656;23.312;2023-05-11T00:13:52;94717.59;;;8.64;100.00
7170;BME280;3626;42.656;23.312;2023-05-11T00:14:00;94724.34;;;8.65;100.00
7170;BME280;3626;42.656;23.312;2023-05-11T00:14:06;94728.69;;;8.65;100.00
7170;BME280;3626;42.656;23.312;2023-05-11T00:14:12;94721.75;;;8.65;100.00
7170;BME280;3626;42.656;23.312;2023-05-11T00:14:18;94727.72;;;8.66;100.00
7170;BME280;3626;42.656;23.312;2023-05-11T00:14:24;94723.38;;;8.66;100.00
7170;BME280;3626;42.656;23.312;2023-05-11T00:14:31;94725.13;;;8.66;100.00
7170;BME280;3626;42.656;23.312;2023-05-11T00:14:37;94725.13;;;8.66;100.00
7170;BME280;3626;42.656;23.312;2023-05-11T00:14:43;94723.38;;;8.66;100.00
7170;BME280;3626;42.656;23.312;2023-05-11T00:14:49;94720.00;;;8.66;100.00
7170;BME280;3626;42.656;23.312;2023-05-11T00:14:55;94731.91;;;8.67;100.00
7170;BME280;3626;42.656;23.312;2023-05-11T00:15:01;94720.97;;;8.65;100.00
7170;BME280;3626;42.656;23.312;2023-05-11T00:15:09;94725.13;;;8.66;100.00
7170;BME280;3626;42.656;23.312;2023-05-11T00:15:15;94725.13;;;8.66;100.00
7170;BME280;3626;42.656;23.312;2023-05-11T00:15:21;94724.34;;;8.65;100.00
7170;BME280;3626;42.656;23.312;2023-05-11T00:15:27;94722.56;;;8.66;100.00
7170;BME280;3626;42.656;23.312;2023-05-11T00:15:36;94718.38;;;8.65;100.00
7170;BME280;3626;42.656;23.312;2023-05-11T00:15:41;94719.34;;;8.64;100.00
7170;BME280;3626;42.656;23.312;2023-05-11T00:15:47;94722.72;;;8.64;100.00
7170;BME280;3626;42.656;23.312;2023-05-11T00:15:54;94727.06;;;8.64;100.00
7170;BME280;3626;42.656;23.312;2023-05-11T00:16:00;94728.69;;;8.65;100.00
7170;BME280;3626;42.656;23.312;2023-05-11T00:16:06;94720.97;;;8.65;100.00
7170;BME280;3626;42.656;23.312;2023-05-11T00:16:12;94723.53;;;8.65;100.00
7170;BME280;3626;42.656;23.312;2023-05-11T00:16:18;94721.75;;;8.65;100.00
7170;BME280;3626;42.656;23.312;2023-05-11T00:16:24;94724.50;;;8.64;100.00
7170;BME280;3626;42.656;23.312;2023-05-11T00:16:30;94715.81;;;8.65;100.00
7170;BME280;3626;42.656;23.312;2023-05-11T00:16:35;94726.09;;;8.65;100.00
7170;BME280;3626;42.656;23.312;2023-05-11T00:16:41;94722.72;;;8.64;100.00
7170;BME280;3626;42.656;23.312;2023-05-11T00:16:47;94720.31;;;8.63;100.00
7170;BME280;3626;42.656;23.312;2023-05-11T00:16:53;94723.69;;;8.63;100.00
7170;BME280;3626;42.656;23.312;2023-05-11T00:16:59;94719.47;;;8.62;100.00
7170;BME280;3626;42.656;23.312;2023-05-11T00:17:05;94715.19;;;8.63;100.00
7170;BME280;3626;42.656;23.312;2023-05-11T00:17:12;94724.50;;;8.64;100.00
7170;BME280;3626;42.656;23.312;2023-05-11T00:17:18;94725.47;;;8.63;100.00
7170;BME280;3626;42.656;23.312;2023-05-11T00:17:24;94714.34;;;8.62;100.00
7170;BME280;3626;42.656;23.312;2023-05-11T00:17:30;94722.91;;;8.63;100.00
7170;BME280;3626;42.656;23.312;2023-05-11T00:17:36;94721.25;;;8.62;100.00
7170;BME280;3626;42.656;23.312;2023-05-11T00:17:42;94725.47;;;8.63;100.00
7170;BME280;3626;42.656;23.312;2023-05-11T00:17:48;94720.44;;;8.61;100.00
7170;BME280;3626;42.656;23.312;2023-05-11T00:17:54;94728.16;;;8.61;100.00
7170;BME280;3626;42.656;23.312;2023-05-11T00:18:00;94725.59;;;8.61;100.00
7170;BME280;3626;42.656;23.312;2023-05-11T00:18:06;94717.88;;;8.61;100.00
7170;BME280;3626;42.656;23.312;2023-05-11T00:18:12;94719.66;;;8.61;100.00
7170;BME280;3626;42.656;23.312;2023-05-11T00:18:18;94720.63;;;8.60;100.00
7170;BME280;3626;42.656;23.312;2023-05-11T00:18:24;94721.41;;;8.60;100.00
7170;BME280;3626;42.656;23.312;2023-05-11T00:18:30;94723.19;;;8.60;100.00
7170;BME280;3626;42.656;23.312;2023-05-11T00:18:36;94719.81;;;8.59;100.00
7170;BME280;3626;42.656;23.312;2023-05-11T00:18:42;94725.75;;;8.60;100.00
7170;BME280;3626;42.656;23.312;2023-05-11T00:18:51;94724.97;;;8.59;100.00
7170;BME280;3626;42.656;23.312;2023-05-11T00:18:57;94724.97;;;8.59;100.00
7170;BME280;3626;42.656;23.312;2023-05-11T00:19:03;94723.19;;;8.60;100.00
7170;BME280;3626;42.656;23.312;2023-05-11T00:19:08;94722.22;;;8.61;100.00
7170;BME280;3626;42.656;23.312;2023-05-11T00:19:15;94727.38;;;8.61;100.00
7170;BME280;3626;42.656;23.312;2023-05-11T00:19:21;94720.63;;;8.60;100.00
7170;BME280;3626;42.656;23.312;2023-05-11T00:19:27;94728.16;;;8.61;100.00
7170;BME280;3626;42.656;23.312;2023-05-11T00:19:35;94723.19;;;8.60;100.00
7170;BME280;3626;42.656;23.312;2023-05-11T00:19:41;94725.75;;;8.60;100.00
7170;BME280;3626;42.656;23.312;2023-05-11T00:19:47;94720.63;;;8.60;100.00
7170;BME280;3626;42.656;23.312;2023-05-11T00:19:53;94727.38;;;8.61;100.00
7170;BME280;3626;42.656;23.312;2023-05-11T00:19:59;94724.78;;;8.61;100.00
7170;BME280;3626;42.656;23.312;2023-05-11T00:20:07;94722.22;;;8.61;100.00
7170;BME280;3626;42.656;23.312;2023-05-11T00:20:13;94726.41;;;8.62;100.00
7170;BME280;3626;42.656;23.312;2023-05-11T00:20:21;94721.13;;;8.63;100.00
7170;BME280;3626;42.656;23.312;2023-05-11T00:20:28;94728.03;;;8.63;100.00
7170;BME280;3626;42.656;23.312;2023-05-11T00:20:36;94721.13;;;8.63;100.00
7170;BME280;3626;42.656;23.312;2023-05-11T00:20:42;94721.13;;;8.63;100.00
7170;BME280;3626;42.656;23.312;2023-05-11T00:20:48;94729.66;;;8.64;100.00
7170;BME280;3626;42.656;23.312;2023-05-11T00:20:54;94719.19;;;8.65;100.00
7170;BME280;3626;42.656;23.312;2023-05-11T00:21:01;94726.09;;;8.65;100.00
7170;BME280;3626;42.656;23.312;2023-05-11T00:21:07;94724.50;;;8.64;100.00
7170;BME280;3626;42.656;23.312;2023-05-11T00:21:13;94728.84;;;8.63;100.00
7170;BME280;3626;42.656;23.312;2023-05-11T00:21:19;94722.91;;;8.63;100.00
7170;BME280;3626;42.656;23.312;2023-05-11T00:21:25;94724.63;;;8.62;100.00
7170;BME280;3626;42.656;23.312;2023-05-11T00:21:31;94722.91;;;8.63;100.00
7170;BME280;3626;42.656;23.312;2023-05-11T00:21:38;94721.13;;;8.63;100.00
7170;BME280;3626;42.656;23.312;2023-05-11T00:21:44;94731.53;;;8.62;100.00
7170;BME280;3626;42.656;23.312;2023-05-11T00:21:50;94724.78;;;8.61;100.00
7170;BME280;3626;42.656;23.312;2023-05-11T00:21:57;94713.69;;;8.60;100.00
7170;BME280;3626;42.656;23.312;2023-05-11T00:22:03;94722.22;;;8.61;100.00
7170;BME280;3626;42.656;23.312;2023-05-11T00:22:09;94717.25;;;8.59;100.00
7170;BME280;3626;42.656;23.312;2023-05-11T00:22:15;94723.19;;;8.60;100.00
7170;BME280;3626;42.656;23.312;2023-05-11T00:22:21;94721.56;;;8.59;100.00
7170;BME280;3626;42.656;23.312;2023-05-11T00:22:27;94719.94;;;8.58;100.00
7170;BME280;3626;42.656;23.312;2023-05-11T00:22:33;94715.63;;;8.58;100.00
7170;BME280;3626;42.656;23.312;2023-05-11T00:22:39;94719.31;;;8.56;100.00
7170;BME280;3626;42.656;23.312;2023-05-11T00:22:46;94724.44;;;8.56;100.00
7170;BME280;3626;42.656;23.312;2023-05-11T00:22:52;94728.78;;;8.55;100.00
7170;BME280;3626;42.656;23.312;2023-05-11T00:22:58;94728.78;;;8.55;100.00
7170;BME280;3626;42.656;23.312;2023-05-11T00:23:04;94718.50;;;8.55;100.00
7170;BME280;3626;42.656;23.312;2023-05-11T00:23:10;94719.47;;;8.54;100.00
7170;BME280;3626;42.656;23.312;2023-05-11T00:23:16;94717.81;;;8.53;100.00
7170;BME280;3626;42.656;23.312;2023-05-11T00:23:22;94720.41;;;8.53;100.00
7170;BME280;3626;42.656;23.312;2023-05-11T00:23:28;94717.03;;;8.52;100.00
7170;BME280;3626;42.656;23.312;2023-05-11T00:23:34;94723.94;;;8.52;100.00
7170;BME280;3626;42.656;23.312;2023-05-11T00:23:40;94731.66;;;8.52;100.00
7170;BME280;3626;42.656;23.312;2023-05-11T00:23:49;94723.13;;;8.51;100.00
7170;BME280;3626;42.656;23.312;2023-05-11T00:23:55;94723.28;;;8.50;100.00
7170;BME280;3626;42.656;23.312;2023-05-11T00:24:01;94726.66;;;8.50;100.00
7170;BME280;3626;42.656;23.312;2023-05-11T00:24:07;94725.69;;;8.51;100.00
7170;BME280;3626;42.656;23.312;2023-05-11T00:24:13;94727.47;;;8.51;100.00
7170;BME280;3626;42.656;23.312;2023-05-11T00:24:19;94728.28;;;8.51;100.00
7170;BME280;3626;42.656;23.312;2023-05-11T00:24:25;94723.13;;;8.51;100.00
7170;BME280;3626;42.656;23.312;2023-05-11T00:24:31;94728.28;;;8.51;100.00
7170;BME280;3626;42.656;23.312;2023-05-11T00:24:37;94721.38;;;8.52;100.00
7170;BME280;3626;42.656;23.312;2023-05-11T00:24:43;94718.78;;;8.52;100.00
7170;BME280;3626;42.656;23.312;2023-05-11T00:24:49;94729.06;;;8.52;100.00
7170;BME280;3626;42.656;23.312;2023-05-11T00:24:55;94723.94;;;8.52;100.00
7170;BME280;3626;42.656;23.312;2023-05-11T00:25:01;94720.41;;;8.53;100.00
7170;BME280;3626;42.656;23.312;2023-05-11T00:25:08;94719.59;;;8.52;100.00
7170;BME280;3626;42.656;23.312;2023-05-11T00:25:17;94726.34;;;8.54;100.00
7170;BME280;3626;42.656;23.312;2023-05-11T00:25:23;94727.97;;;8.55;100.00
7170;BME280;3626;42.656;23.312;2023-05-11T00:25:29;94722.03;;;8.54;100.00
7170;BME280;3626;42.656;23.312;2023-05-11T00:25:35;94722.84;;;8.55;100.00
7170;BME280;3626;42.656;23.312;2023-05-11T00:25:41;94723.63;;;8.55;100.00
7170;BME280;3626;42.656;23.312;2023-05-11T00:25:47;94725.25;;;8.56;100.00
7170;BME280;3626;42.656;23.312;2023-05-11T00:25:53;94730.41;;;8.56;100.00
7170;BME280;3626;42.656;23.312;2023-05-11T00:25:58;94725.25;;;8.56;100.00
7170;BME280;3626;42.656;23.312;2023-05-11T00:26:04;94727.81;;;8.56;100.00
7170;BME280;3626;42.656;23.312;2023-05-11T00:26:11;94731.06;;;8.58;100.00
7170;BME280;3626;42.656;23.312;2023-05-11T00:26:17;94724.28;;;8.57;100.00
7170;BME280;3626;42.656;23.312;2023-05-11T00:26:23;94722.50;;;8.58;100.00
7170;BME280;3626;42.656;23.312;2023-05-11T00:26:28;94728.50;;;8.58;100.00
7170;BME280;3626;42.656;23.312;2023-05-11T00:26:34;94724.97;;;8.59;100.00
7170;BME280;3626;42.656;23.312;2023-05-11T00:26:43;94719.00;;;8.59;100.00
7170;BME280;3626;42.656;23.312;2023-05-11T00:26:49;94726.72;;;8.59;100.00
7170;BME280;3626;42.656;23.312;2023-05-11T00:26:55;94730.09;;;8.59;100.00
7170;BME280;3626;42.656;23.312;2023-05-11T00:27:01;94727.53;;;8.59;100.00
7170;BME280;3626;42.656;23.312;2023-05-11T00:27:07;94730.91;;;8.60;100.00
7170;BME280;3626;42.656;23.312;2023-05-11T00:27:13;94724.16;;;8.59;100.00
7170;BME280;3626;42.656;23.312;2023-05-11T00:27:19;94722.50;;;8.58;100.00
7170;BME280;3626;42.656;23.312;2023-05-11T00:27:25;94727.66;;;8.58;100.00
7170;BME280;3626;42.656;23.312;2023-05-11T00:27:31;94732.81;;;8.58;100.00
7170;BME280;3626;42.656;23.312;2023-05-11T00:27:37;94725.25;;;8.56;100.00
7170;BME280;3626;42.656;23.312;2023-05-11T00:27:43;94728.50;;;8.58;100.00
7170;BME280;3626;42.656;23.312;2023-05-11T00:27:50;94733.63;;;8.58;100.00
7170;BME280;3626;42.656;23.312;2023-05-11T00:27:56;94732.00;;;8.57;100.00
7170;BME280;3626;42.656;23.312;2023-05-11T00:28:02;94730.22;;;8.58;100.00
7170;BME280;3626;42.656;23.312;2023-05-11T00:28:08;94735.25;;;8.59;100.00
7170;BME280;3626;42.656;23.312;2023-05-11T00:28:15;94730.91;;;8.60;100.00
7170;BME280;3626;42.656;23.312;2023-05-11T00:28:24;94727.66;;;8.58;100.00
7170;BME280;3626;42.656;23.312;2023-05-11T00:28:30;94731.88;;;8.59;100.00
7170;BME280;3626;42.656;23.312;2023-05-11T00:28:36;94733.47;;;8.60;100.00
7170;BME280;3626;42.656;23.312;2023-05-11T00:28:42;94729.28;;;8.59;100.00
7170;BME280;3626;42.656;23.312;2023-05-11T00:28:48;94728.34;;;8.60;100.00
7170;BME280;3626;42.656;23.312;2023-05-11T00:28:53;94727.38;;;8.61;100.00
7170;BME280;3626;42.656;23.312;2023-05-11T00:28:59;94729.94;;;8.61;100.00
7170;BME280;3626;42.656;23.312;2023-05-11T00:29:06;94727.53;;;8.59;100.00
7170;BME280;3626;42.656;23.312;2023-05-11T00:29:11;94730.41;;;8.56;100.00
7170;BME280;3626;42.656;23.312;2023-05-11T00:29:18;94720.09;;;8.56;100.00
7170;BME280;3626;42.656;23.312;2023-05-11T00:29:24;94724.44;;;8.56;100.00
7170;BME280;3626;42.656;23.312;2023-05-11T00:29:30;94732.16;;;8.56;100.00
7170;BME280;3626;42.656;23.312;2023-05-11T00:29:36;94723.63;;;8.55;100.00
7170;BME280;3626;42.656;23.312;2023-05-11T00:29:42;94728.78;;;8.55;100.00
7170;BME280;3626;42.656;23.312;2023-05-11T00:29:48;94727.97;;;8.55;100.00
7170;BME280;3626;42.656;23.312;2023-05-11T00:29:54;94732.16;;;8.56;100.00
7170;BME280;3626;42.656;23.312;2023-05-11T00:30:00;94734.72;;;8.56;100.00
7170;BME280;3626;42.656;23.312;2023-05-11T00:30:10;94731.19;;;8.57;100.00
7170;BME280;3626;42.656;23.312;2023-05-11T00:30:16;94726.06;;;8.57;100.00
7170;BME280;3626;42.656;23.312;2023-05-11T00:30:22;94729.44;;;8.57;100.00
7170;BME280;3626;42.656;23.312;2023-05-11T00:30:31;94723.34;;;8.58;100.00
7170;BME280;3626;42.656;23.312;2023-05-11T00:30:38;94728.50;;;8.58;100.00
7170;BME280;3626;42.656;23.312;2023-05-11T00:30:44;94731.88;;;8.59;100.00
7170;BME280;3626;42.656;23.312;2023-05-11T00:30:54;94730.09;;;8.59;100.00
7170;BME280;3626;42.656;23.312;2023-05-11T00:31:01;94729.28;;;8.59;100.00
7170;BME280;3626;42.656;23.312;2023-05-11T00:31:07;94730.91;;;8.60;100.00
7170;BME280;3626;42.656;23.312;2023-05-11T00:31:12;94726.72;;;8.59;100.00
7170;BME280;3626;42.656;23.312;2023-05-11T00:31:18;94730.91;;;8.60;100.00
7170;BME280;3626;42.656;23.312;2023-05-11T00:31:24;94734.44;;;8.59;100.00
7170;BME280;3626;42.656;23.312;2023-05-11T00:31:31;94727.53;;;8.59;100.00
7170;BME280;3626;42.656;23.312;2023-05-11T00:31:37;94727.53;;;8.59;100.00
7170;BME280;3626;42.656;23.312;2023-05-11T00:31:46;94724.16;;;8.59;100.00
7170;BME280;3626;42.656;23.312;2023-05-11T00:31:54;94725.75;;;8.60;100.00
7170;BME280;3626;42.656;23.312;2023-05-11T00:32:00;94728.50;;;8.58;100.00
7170;BME280;3626;42.656;23.312;2023-05-11T00:32:06;94734.44;;;8.59;100.00
7170;BME280;3626;42.656;23.312;2023-05-11T00:32:12;94725.09;;;8.58;100.00
7170;BME280;3626;42.656;23.312;2023-05-11T00:32:18;94732.81;;;8.58;100.00
7170;BME280;3626;42.656;23.312;2023-05-11T00:32:24;94728.50;;;8.58;100.00
7170;BME280;3626;42.656;23.312;2023-05-11T00:32:29;94730.09;;;8.59;100.00
7170;BME280;3626;42.656;23.312;2023-05-11T00:32:35;94731.88;;;8.59;100.00
7170;BME280;3626;42.656;23.312;2023-05-11T00:32:42;94732.00;;;8.57;100.00
7170;BME280;3626;42.656;23.312;2023-05-11T00:32:49;94730.41;;;8.56;100.00
7170;BME280;3626;42.656;23.312;2023-05-11T00:32:56;94734.44;;;8.59;100.00
7170;BME280;3626;42.656;23.312;2023-05-11T00:33:05;94726.06;;;8.57;100.00
7170;BME280;3626;42.656;23.312;2023-05-11T00:33:11;94727.66;;;8.58;100.00
7170;BME280;3626;42.656;23.312;2023-05-11T00:33:17;94724.16;;;8.59;100.00
7170;BME280;3626;42.656;23.312;2023-05-11T00:33:23;94731.88;;;8.59;100.00
7170;BME280;3626;42.656;23.312;2023-05-11T00:33:29;94731.06;;;8.58;100.00
7170;BME280;3626;42.656;23.312;2023-05-11T00:33:35;94733.63;;;8.58;100.00
7170;BME280;3626;42.656;23.312;2023-05-11T00:33:40;94720.91;;;8.57;100.00
7170;BME280;3626;42.656;23.312;2023-05-11T00:33:46;94731.19;;;8.57;100.00
7170;BME280;3626;42.656;23.312;2023-05-11T00:33:52;94728.63;;;8.57;100.00
7170;BME280;3626;42.656;23.312;2023-05-11T00:33:59;94731.88;;;8.59;100.00
7170;BME280;3626;42.656;23.312;2023-05-11T00:34:05;94733.63;;;8.58;100.00